KIFP

Laughlin / Bullhead International Airport

Bullhead City, Arizona, USA
METAR KIFP 151235Z AUTO 01013KT 10SM CLR 16/M09 A3014 RMK AO2
Observed Flight Rules
Nov-15 @ 12:35 UTC (7 minutes ago) Visual Flight Rules
Wind Visibility Clouds
10° at 13 knots 10 miles
  • Clear skies
Temperatures Readings
Current 16°C / 61°F
Dewpoint -9°C / 16°F
Humidity 17%
Altimeter 30.14" Hg
Pressure 1021 hPa
Elevation 212
METAR KIFP 151235Z AUTO 01013KT 10SM CLR 16/M09 A3014 RMK AO2
Observed Flight Rules
Nov-15 @ 12:35 UTC
(7 minutes ago)
VFR
Wind Visibility
10° at 13 knots 10 miles
Clouds
  • Clear skies
Temperature Dewpoint
16°C / 61°F -9°C / 16°F
Humidity Altimeter Pressure
17% 30.14" Hg 1021 hPa